createdAt,value
2022-11-18T00:02:00.100Z,94353.03
2022-11-18T00:04:29.323Z,94349.43
2022-11-18T00:06:58.651Z,94348.10
2022-11-18T00:09:33.975Z,94346.70
2022-11-18T00:12:27.830Z,94347.27
2022-11-18T00:15:08.365Z,94349.30
2022-11-18T00:17:48.298Z,94352.83
2022-11-18T00:20:20.529Z,94354.95
2022-11-18T00:22:52.205Z,94353.92
2022-11-18T00:25:21.062Z,94349.30
2022-11-18T00:27:51.475Z,94351.19
2022-11-18T00:30:20.611Z,94349.72
2022-11-18T00:32:49.676Z,94350.36
2022-11-18T00:35:24.520Z,94349.01
2022-11-18T00:37:55.070Z,94353.52
2022-11-18T00:40:28.426Z,94352.75
2022-11-18T00:42:59.932Z,94347.58
2022-11-18T00:49:00.274Z,94343.48
2022-11-18T00:51:30.680Z,94349.07
2022-11-18T00:53:59.741Z,94344.00
2022-11-18T00:56:28.670Z,94347.19
2022-11-18T00:58:57.685Z,94347.69
2022-11-18T01:01:31.880Z,94349.78
2022-11-18T01:04:00.832Z,94307.41
2022-11-18T01:06:32.914Z,94341.16
2022-11-18T01:09:01.876Z,94340.14
2022-11-18T01:11:49.925Z,94344.12
2022-11-18T01:14:22.059Z,94338.95
2022-11-18T01:16:54.499Z,94348.73
2022-11-18T01:19:24.716Z,94345.52
2022-11-18T01:21:53.602Z,94352.00
2022-11-18T01:24:22.469Z,94350.06
2022-11-18T01:26:51.353Z,94351.36
2022-11-18T01:32:49.296Z,94349.46
2022-11-18T01:41:52.711Z,94358.48
2022-11-18T01:44:57.704Z,94354.72
2022-11-18T01:47:31.467Z,94349.65
2022-11-18T01:50:02.566Z,94349.84
2022-11-18T01:52:33.321Z,94356.00
2022-11-18T01:55:47.284Z,94351.29
2022-11-18T01:58:36.020Z,94350.79
2022-11-18T02:01:07.898Z,94351.23
2022-11-18T02:03:39.215Z,94345.45
2022-11-18T02:09:39.735Z,94350.44
2022-11-18T02:18:40.968Z,94343.64
2022-11-18T02:21:27.148Z,94306.33
2022-11-18T02:24:14.967Z,94348.56
2022-11-18T02:26:56.879Z,94343.95
2022-11-18T02:29:41.751Z,94344.02
2022-11-18T02:32:19.219Z,94347.61
2022-11-18T02:34:50.883Z,94344.83
2022-11-18T02:37:27.984Z,94347.56
2022-11-18T02:39:59.592Z,94352.23
2022-11-18T02:42:30.704Z,94344.83
2022-11-18T02:45:02.256Z,94341.05
2022-11-18T02:47:33.601Z,94345.09
2022-11-18T02:50:05.158Z,94341.75
2022-11-18T02:52:36.952Z,94348.48
2022-11-18T02:55:08.589Z,94341.05
2022-11-18T02:57:38.888Z,94333.98
2022-11-18T03:00:09.216Z,94340.79
2022-11-18T03:05:52.608Z,94344.34
2022-11-18T03:08:24.155Z,94345.45
2022-11-18T03:10:55.747Z,94351.20
2022-11-18T03:13:33.301Z,94354.53
2022-11-18T03:16:04.860Z,94357.89
2022-11-18T03:18:36.514Z,94356.77
2022-11-18T03:21:08.117Z,94351.45
2022-11-18T03:23:54.748Z,94351.53
2022-11-18T03:26:32.110Z,94344.90
2022-11-18T03:29:09.307Z,94344.22
2022-11-18T03:31:51.507Z,94341.70
2022-11-18T03:34:27.230Z,94339.53
2022-11-18T03:37:10.038Z,94341.31
2022-11-18T03:39:37.889Z,94336.77
2022-11-18T03:42:12.465Z,94342.31
2022-11-18T03:44:47.157Z,94343.58
2022-11-18T03:47:17.987Z,94343.56
2022-11-18T03:49:49.803Z,94339.14
2022-11-18T03:52:21.438Z,94335.18
2022-11-18T03:54:53.040Z,94324.62
2022-11-18T03:57:30.822Z,94322.35
2022-11-18T04:00:02.598Z,94324.63
2022-11-18T04:02:31.833Z,94323.62
2022-11-18T04:05:03.736Z,94321.81
2022-11-18T04:07:53.599Z,94324.96
2022-11-18T04:10:25.102Z,94323.19
2022-11-18T04:13:06.670Z,94330.25
2022-11-18T04:15:41.501Z,94321.67
2022-11-18T04:18:15.622Z,94328.45
2022-11-18T04:20:44.266Z,94334.62
2022-11-18T04:23:15.860Z,94326.98
2022-11-18T04:25:52.994Z,94334.88
2022-11-18T04:28:22.912Z,94341.92
2022-11-18T04:30:51.455Z,94346.05
2022-11-18T04:33:20.114Z,94335.23
2022-11-18T04:35:52.479Z,94338.27
2022-11-18T04:38:22.226Z,94344.33
2022-11-18T04:40:50.867Z,94344.45
2022-11-18T04:43:19.504Z,94341.09
2022-11-18T04:45:48.154Z,94363.39
2022-11-18T04:48:16.761Z,94359.98
2022-11-18T04:50:45.499Z,94360.06
2022-11-18T04:53:14.192Z,94356.83
2022-11-18T04:55:42.765Z,94349.57
2022-11-18T04:58:11.980Z,94355.96
2022-11-18T05:00:40.690Z,94355.65
2022-11-18T05:03:09.303Z,94355.89
2022-11-18T05:05:40.924Z,94361.02
2022-11-18T05:08:09.660Z,94357.28
2022-11-18T05:10:40.111Z,94350.78
2022-11-18T05:13:15.989Z,94350.52
2022-11-18T05:15:46.645Z,94349.77
2022-11-18T05:18:15.626Z,94352.58
2022-11-18T05:20:44.747Z,94356.09
2022-11-18T05:23:27.361Z,94350.84
2022-11-18T05:26:07.265Z,94361.92
2022-11-18T05:28:41.323Z,94352.33
2022-11-18T05:31:17.438Z,94365.48
2022-11-18T05:40:01.871Z,94359.85
2022-11-18T05:45:39.652Z,94358.59
2022-11-18T05:55:09.519Z,94359.68
2022-11-18T05:57:41.925Z,94362.56
2022-11-18T06:00:11.595Z,94355.59
2022-11-18T06:02:42.123Z,94360.24
2022-11-18T06:05:12.683Z,94352.19
2022-11-18T06:07:47.302Z,94353.98
2022-11-18T06:13:19.992Z,94353.68
2022-11-18T06:15:49.383Z,94346.69
2022-11-18T06:18:27.725Z,94363.08
2022-11-18T06:21:00.167Z,94351.78
2022-11-18T06:23:33.037Z,94358.38
2022-11-18T06:26:04.811Z,94363.64
2022-11-18T06:31:22.503Z,94354.47
2022-11-18T06:33:54.576Z,94338.34
2022-11-18T06:36:35.438Z,94350.20
2022-11-18T06:39:08.058Z,94346.41
2022-11-18T06:41:37.001Z,94349.22
2022-11-18T06:44:07.059Z,94338.37
2022-11-18T06:46:53.733Z,94346.05
2022-11-18T06:49:26.250Z,94341.69
2022-11-18T06:52:10.752Z,94347.67
2022-11-18T06:54:39.807Z,94344.83
2022-11-18T06:57:08.507Z,94348.06
2022-11-18T06:59:37.216Z,94354.13
2022-11-18T07:05:22.613Z,94340.61
2022-11-18T07:08:10.963Z,94347.11
2022-11-18T07:10:44.314Z,94344.05
2022-11-18T07:13:23.956Z,94354.94
2022-11-18T07:15:54.639Z,94351.53
2022-11-18T07:18:27.573Z,94344.53
2022-11-18T07:20:56.228Z,94335.08
2022-11-18T07:23:28.020Z,94333.38
2022-11-18T07:25:57.322Z,94310.75
2022-11-18T07:28:29.148Z,94323.28
2022-11-18T07:31:08.822Z,94321.39
2022-11-18T07:33:42.835Z,94321.00
2022-11-18T07:36:14.516Z,94313.38
2022-11-18T07:38:43.844Z,94332.77
2022-11-18T07:41:15.919Z,94328.95
2022-11-18T07:43:46.530Z,94316.98
2022-11-18T07:46:32.661Z,94306.92
2022-11-18T07:49:07.060Z,94309.23
2022-11-18T07:51:43.433Z,94317.20
2022-11-18T07:54:18.244Z,94312.24
2022-11-18T07:56:46.961Z,94323.48
2022-11-18T07:59:15.970Z,94328.61
2022-11-18T08:01:46.902Z,94330.48
2022-11-18T08:04:17.268Z,94332.59
2022-11-18T08:06:47.491Z,94332.58
2022-11-18T08:09:16.713Z,94358.23
2022-11-18T08:18:37.259Z,94365.45
2022-11-18T08:21:06.033Z,94367.14
2022-11-18T08:23:41.506Z,94340.03
2022-11-18T08:26:08.722Z,94339.45
2022-11-18T08:28:38.270Z,94331.16
2022-11-18T08:31:15.681Z,94329.82
2022-11-18T08:33:45.088Z,94328.14
2022-11-18T08:36:19.903Z,94312.50
2022-11-18T08:38:53.157Z,94313.84
2022-11-18T08:47:16.669Z,94301.28
2022-11-18T08:49:45.332Z,94292.52
2022-11-18T08:52:13.973Z,94294.58
2022-11-18T08:54:42.645Z,94284.42
2022-11-18T08:57:11.779Z,94287.27
2022-11-18T08:59:40.859Z,94275.31
2022-11-18T09:02:17.917Z,94257.84
2022-11-18T09:05:01.090Z,94256.88
2022-11-18T09:07:37.628Z,94245.10
2022-11-18T09:13:47.580Z,94224.66
2022-11-18T09:35:48.456Z,94241.56
2022-11-18T09:38:20.707Z,94219.35
2022-11-18T09:47:47.138Z,94190.47
2022-11-18T09:50:56.684Z,94194.98
2022-11-18T09:59:15.410Z,94171.44
2022-11-18T10:05:32.175Z,94155.72
2022-11-18T10:11:31.215Z,94171.38
2022-11-18T10:14:33.884Z,94162.55
2022-11-18T10:17:26.130Z,94155.61
2022-11-18T10:23:34.004Z,94157.33
2022-11-18T10:26:08.962Z,94158.59
2022-11-18T10:28:37.896Z,94139.72
2022-11-18T10:31:09.556Z,94142.41
2022-11-18T10:33:39.559Z,94153.39
2022-11-18T10:36:22.038Z,94129.64
2022-11-18T10:39:08.232Z,94130.73
2022-11-18T10:41:52.316Z,94125.16
2022-11-18T10:47:48.258Z,94113.55
2022-11-18T10:50:43.808Z,94127.81
2022-11-18T10:53:37.481Z,94107.36
2022-11-18T10:57:22.030Z,94096.81
2022-11-18T10:59:53.428Z,94101.28
2022-11-18T11:05:56.860Z,94091.55
2022-11-18T11:08:36.892Z,94094.89
2022-11-18T11:11:07.642Z,94082.72
2022-11-18T11:16:56.271Z,94099.06
2022-11-18T11:19:32.998Z,94082.34
2022-11-18T11:22:05.982Z,94085.59
2022-11-18T11:24:34.687Z,94078.95
2022-11-18T11:30:12.371Z,94075.23
2022-11-18T11:39:17.534Z,94040.28
2022-11-18T11:41:54.271Z,94044.01
2022-11-18T11:44:42.336Z,94047.77
2022-11-18T11:47:34.101Z,94038.08
2022-11-18T11:50:13.278Z,94071.80
2022-11-18T11:52:49.505Z,94033.42
2022-11-18T11:55:34.771Z,94038.02
2022-11-18T11:58:27.287Z,94049.97
2022-11-18T12:01:11.206Z,94047.23
2022-11-18T12:04:12.014Z,94033.22
2022-11-18T12:06:42.772Z,94047.89
2022-11-18T12:09:29.626Z,94047.56
2022-11-18T12:12:17.790Z,94029.83
2022-11-18T12:14:50.835Z,94038.37
2022-11-18T12:17:26.556Z,94039.23
2022-11-18T12:19:55.194Z,94042.24
2022-11-18T12:22:25.806Z,94029.77
2022-11-18T12:24:54.322Z,94021.63
2022-11-18T12:27:44.009Z,94017.96
2022-11-18T12:30:13.152Z,94006.93
2022-11-18T12:32:46.079Z,93995.51
2022-11-18T12:35:19.116Z,94005.86
2022-11-18T12:37:56.327Z,93999.43
2022-11-18T12:40:52.684Z,93999.20
2022-11-18T12:43:48.955Z,94003.53
2022-11-18T12:46:42.834Z,94003.81
2022-11-18T12:49:26.806Z,93995.23
2022-11-18T12:51:57.526Z,93997.39
2022-11-18T12:54:29.205Z,94005.44
2022-11-18T12:57:01.152Z,93992.19
2022-11-18T12:59:34.603Z,93973.76
2022-11-18T13:02:09.203Z,93966.83
2022-11-18T13:04:45.786Z,93977.73
2022-11-18T13:07:37.136Z,93979.80
2022-11-18T13:10:09.427Z,93973.76
2022-11-18T13:12:41.207Z,93945.45
2022-11-18T13:15:30.984Z,93946.04
2022-11-18T13:18:21.506Z,93934.91
2022-11-18T13:20:58.117Z,93926.04
2022-11-18T13:23:47.989Z,93932.32
2022-11-18T13:26:34.438Z,93936.94
2022-11-18T13:29:28.586Z,93919.07
2022-11-18T13:32:09.230Z,93924.87
2022-11-18T13:34:52.664Z,93927.95
2022-11-18T13:37:34.261Z,93927.81
2022-11-18T13:40:04.619Z,93903.91
2022-11-18T13:42:36.653Z,93876.14
2022-11-18T13:45:07.327Z,93827.02
2022-11-18T13:47:47.952Z,93912.45
2022-11-18T13:50:35.744Z,93899.51
2022-11-18T13:53:16.189Z,93905.14
2022-11-18T13:55:50.900Z,93919.78
2022-11-18T13:58:55.637Z,93924.15
2022-11-18T14:01:07.983Z,93931.80
2022-11-18T14:03:58.768Z,93932.83
2022-11-18T14:06:45.527Z,93924.86
2022-11-18T14:09:20.649Z,93908.44
2022-11-18T14:12:08.855Z,93902.23
2022-11-18T14:14:40.300Z,93901.92
2022-11-18T14:17:29.043Z,93907.35
2022-11-18T14:20:03.351Z,93902.75
2022-11-18T14:22:32.623Z,93895.63
2022-11-18T14:25:20.902Z,93870.60
2022-11-18T14:27:51.923Z,93884.67
2022-11-18T14:30:32.709Z,93901.58
2022-11-18T14:33:22.018Z,93895.37
2022-11-18T14:36:12.908Z,93831.06
2022-11-18T14:39:24.856Z,93877.80
2022-11-18T14:41:44.268Z,93899.45
2022-11-18T14:44:10.745Z,93892.03
2022-11-18T14:46:39.838Z,93892.52
2022-11-18T14:49:18.175Z,93879.79
2022-11-18T14:51:47.373Z,93882.66
2022-11-18T14:54:25.796Z,93893.70
2022-11-18T14:56:52.341Z,93905.42
2022-11-18T14:59:22.739Z,93900.42
2022-11-18T15:01:51.563Z,93915.65
2022-11-18T15:04:22.062Z,93906.23
2022-11-18T15:06:53.175Z,93943.04
2022-11-18T15:09:23.793Z,93948.09
2022-11-18T15:12:01.303Z,93957.49
2022-11-18T15:14:45.237Z,93958.94
2022-11-18T15:17:15.629Z,93943.13
2022-11-18T15:19:44.452Z,93946.51
2022-11-18T15:22:13.271Z,93963.95
2022-11-18T15:24:42.009Z,93939.13
2022-11-18T15:27:12.283Z,93934.81
2022-11-18T15:29:42.051Z,93920.89
2022-11-18T15:32:10.732Z,93905.06
2022-11-18T15:34:39.427Z,93888.40
2022-11-18T15:37:08.066Z,93881.69
2022-11-18T15:39:37.755Z,93882.05
2022-11-18T15:42:07.598Z,93876.14
2022-11-18T15:44:36.404Z,93883.28
2022-11-18T15:47:05.528Z,93878.27
2022-11-18T15:49:34.703Z,93879.61
2022-11-18T15:52:03.521Z,93875.50
2022-11-18T15:54:32.470Z,93800.73
2022-11-18T15:57:04.756Z,93837.20
2022-11-18T15:59:35.065Z,93885.97
2022-11-18T16:02:07.442Z,93871.42
2022-11-18T16:04:36.097Z,93858.37
2022-11-18T16:07:08.045Z,93844.79
2022-11-18T16:09:54.407Z,93847.63
2022-11-18T16:12:40.794Z,93844.88
2022-11-18T16:15:30.269Z,93853.83
2022-11-18T16:17:59.075Z,93859.04
2022-11-18T16:20:28.645Z,93853.02
2022-11-18T16:22:58.779Z,93848.67
2022-11-18T16:25:29.459Z,93859.96
2022-11-18T16:28:05.430Z,93879.30
2022-11-18T16:30:47.032Z,93896.12
2022-11-18T16:33:20.031Z,93927.88
2022-11-18T16:35:51.132Z,93930.39
2022-11-18T16:38:19.827Z,93922.52
2022-11-18T16:40:52.863Z,93928.89
2022-11-18T16:43:21.423Z,93930.03
2022-11-18T16:45:55.719Z,93923.85
2022-11-18T16:48:24.418Z,93926.70
2022-11-18T16:51:05.050Z,93918.82
2022-11-18T16:53:33.835Z,93921.13
2022-11-18T16:56:05.448Z,93923.39
2022-11-18T16:58:34.107Z,93938.03
2022-11-18T17:01:20.909Z,93918.23
2022-11-18T17:03:47.050Z,93907.16
2022-11-18T17:06:20.730Z,93908.42
2022-11-18T17:08:49.768Z,93908.61
2022-11-18T17:11:28.388Z,93914.86
2022-11-18T17:13:58.610Z,93924.22
2022-11-18T17:16:28.290Z,93912.52
2022-11-18T17:19:00.041Z,93909.81
2022-11-18T17:21:31.404Z,93905.73
2022-11-18T17:24:00.053Z,93908.42
2022-11-18T17:26:29.414Z,93909.00
2022-11-18T17:29:05.681Z,93898.90
2022-11-18T17:31:35.115Z,93889.67
2022-11-18T17:34:03.901Z,93893.14
2022-11-18T17:36:34.183Z,93876.34
2022-11-18T17:39:10.167Z,93883.36
2022-11-18T17:41:57.117Z,93786.72
2022-11-18T17:44:25.786Z,93878.81
2022-11-18T17:46:54.680Z,93873.64
2022-11-18T17:49:25.716Z,93859.39
2022-11-18T17:51:55.824Z,93854.05
2022-11-18T17:54:24.839Z,93856.86
2022-11-18T17:56:53.525Z,93827.17
2022-11-18T17:59:37.373Z,93844.20
2022-11-18T18:05:11.238Z,93857.97
2022-11-18T18:07:40.485Z,93850.17
2022-11-18T18:10:09.794Z,93850.10
2022-11-18T18:12:56.591Z,93848.67
2022-11-18T18:15:35.463Z,93838.84
2022-11-18T18:18:09.728Z,93839.14
2022-11-18T18:20:35.673Z,93828.88
2022-11-18T18:23:50.108Z,93831.26
2022-11-18T18:26:20.485Z,93830.09
2022-11-18T18:28:59.155Z,93836.65
2022-11-18T18:31:28.958Z,93845.83
2022-11-18T18:33:59.216Z,93855.58
2022-11-18T18:36:29.798Z,93843.73
2022-11-18T18:39:00.654Z,93868.39
2022-11-18T18:41:30.612Z,93857.30
2022-11-18T18:44:09.611Z,93852.02
2022-11-18T18:46:40.734Z,93849.55
2022-11-18T18:49:12.203Z,93862.16
2022-11-18T18:51:46.552Z,93866.33
2022-11-18T18:54:20.904Z,93865.58
2022-11-18T18:56:49.897Z,93840.98
2022-11-18T18:59:18.792Z,93867.66
2022-11-18T19:01:47.616Z,93867.62
2022-11-18T19:04:18.219Z,93870.37
2022-11-18T19:07:04.113Z,93893.52
2022-11-18T19:09:19.839Z,93876.52
2022-11-18T19:12:06.676Z,93887.91
2022-11-18T19:14:35.954Z,93882.30
2022-11-18T19:17:10.657Z,93891.64
2022-11-18T19:19:55.364Z,93891.86
2022-11-18T19:22:25.473Z,93895.27
2022-11-18T19:24:56.501Z,93907.53
2022-11-18T19:27:31.175Z,93900.14
2022-11-18T19:30:02.903Z,93910.08
2022-11-18T19:32:31.656Z,93914.30
2022-11-18T19:35:01.820Z,93897.94
2022-11-18T19:37:32.512Z,93915.07
2022-11-18T19:40:08.809Z,93922.27
2022-11-18T19:42:39.602Z,93925.53
2022-11-18T19:45:09.381Z,93936.69
2022-11-18T19:47:38.227Z,93937.49
2022-11-18T19:50:08.143Z,93953.64
2022-11-18T19:52:36.851Z,93965.72
2022-11-18T19:55:05.920Z,93963.64
2022-11-18T19:57:38.715Z,93962.47
2022-11-18T20:00:08.223Z,93968.84
2022-11-18T20:02:42.006Z,93982.06
2022-11-18T20:05:28.840Z,93997.68
2022-11-18T20:07:59.230Z,94006.80
2022-11-18T20:10:28.017Z,94029.19
2022-11-18T20:12:57.881Z,94007.52
2022-11-18T20:15:28.481Z,94018.37
2022-11-18T20:18:02.586Z,94052.71
2022-11-18T20:20:36.310Z,94042.08
2022-11-18T20:23:08.374Z,94043.04
2022-11-18T20:25:38.869Z,94050.18
2022-11-18T20:31:14.916Z,93973.67
2022-11-18T20:37:30.867Z,94085.17
2022-11-18T20:39:59.839Z,94083.22
2022-11-18T20:42:48.676Z,94082.80
2022-11-18T20:45:17.668Z,94079.25
2022-11-18T20:47:52.328Z,94063.90
2022-11-18T20:50:20.881Z,94075.25
2022-11-18T20:52:54.115Z,94055.65
2022-11-18T20:55:22.823Z,94059.34
2022-11-18T20:57:55.602Z,94059.15
2022-11-18T21:00:25.800Z,94061.65
2022-11-18T21:02:55.821Z,94071.89
2022-11-18T21:05:28.414Z,94075.20
2022-11-18T21:08:05.832Z,94080.21
2022-11-18T21:10:51.750Z,94079.84
2022-11-18T21:16:59.650Z,94075.75
2022-11-18T21:22:40.221Z,94076.68
2022-11-18T21:25:10.080Z,94069.66
2022-11-18T21:27:40.240Z,94069.74
2022-11-18T21:30:10.785Z,94067.48
2022-11-18T21:32:39.468Z,94070.01
2022-11-18T21:35:08.268Z,94072.42
2022-11-18T21:37:36.914Z,94074.39
2022-11-18T21:40:05.973Z,94074.02
2022-11-18T21:42:34.538Z,94075.09
2022-11-18T21:45:03.104Z,94074.47
2022-11-18T21:47:31.731Z,94080.16
2022-11-18T21:50:00.297Z,94090.61
2022-11-18T21:52:28.903Z,94099.49
2022-11-18T21:54:57.625Z,94097.41
2022-11-18T21:57:26.259Z,94103.20
2022-11-18T21:59:55.337Z,94100.20
2022-11-18T22:02:24.145Z,94098.48
2022-11-18T22:04:57.132Z,94103.52
2022-11-18T22:07:27.180Z,94118.05
2022-11-18T22:09:55.875Z,94118.88
2022-11-18T22:12:24.616Z,94131.08
2022-11-18T22:14:53.156Z,94133.03
2022-11-18T22:17:21.749Z,94139.64
2022-11-18T22:19:50.329Z,94138.69
2022-11-18T22:22:19.091Z,94143.27
2022-11-18T22:24:47.678Z,94146.97
2022-11-18T22:27:16.277Z,94157.29
2022-11-18T22:29:44.832Z,94156.50
2022-11-18T22:32:13.431Z,94161.75
2022-11-18T22:34:45.913Z,94155.69
2022-11-18T22:37:16.593Z,94162.99
2022-11-18T22:39:47.176Z,94177.84
2022-11-18T22:42:33.564Z,94193.52
2022-11-18T22:45:02.090Z,94193.25
2022-11-18T22:47:30.739Z,94187.03
2022-11-18T22:49:59.624Z,94195.84
2022-11-18T22:52:28.203Z,94208.34
2022-11-18T22:54:56.798Z,94203.47
2022-11-18T22:57:25.506Z,94228.44
2022-11-18T22:59:54.023Z,94245.79
2022-11-18T23:02:22.824Z,94240.03
2022-11-18T23:04:53.686Z,94246.88
2022-11-18T23:07:22.372Z,94270.31
2022-11-18T23:09:50.966Z,94274.62
2022-11-18T23:12:37.486Z,94284.23
2022-11-18T23:15:06.457Z,94267.88
2022-11-18T23:17:34.985Z,94277.45
2022-11-18T23:20:03.622Z,94279.72
2022-11-18T23:22:32.560Z,94292.87
2022-11-18T23:25:01.454Z,94288.07
2022-11-18T23:27:30.159Z,94302.92
2022-11-18T23:30:01.801Z,94310.11
2022-11-18T23:32:33.555Z,94302.86
2022-11-18T23:35:02.115Z,94307.18
2022-11-18T23:37:30.682Z,94293.29
2022-11-18T23:39:59.320Z,94300.91
2022-11-18T23:42:27.837Z,94306.06
2022-11-18T23:45:00.973Z,94305.13
2022-11-18T23:47:26.878Z,94309.71
2022-11-18T23:49:55.436Z,94323.64
2022-11-18T23:52:24.007Z,94328.94
2022-11-18T23:54:54.314Z,94329.73
2022-11-18T23:57:22.940Z,94344.55
2022-11-18T23:59:51.487Z,94344.77
